ADDS METAR Data INFO
IDs: Format: Raw Decoded Include TAF

Data at: 1939 UTC 17 Feb 2018

K0V4 171915Z AUTO 03005KT 10SM OVC035 04/00 A3015 RMK AO1 T00390001
K0V4 171855Z AUTO 10003KT 10SM OVC037 05/00 A3015 RMK AO1 T00451001
K0V4 171835Z AUTO 08003KT 10SM OVC037 05/M02 A3020 RMK AO1 T00491016
K0V4 171815Z AUTO 14003KT 10SM OVC039 05/M02 A3019 RMK AO1 T00481017
K0V4 171755Z AUTO 10005KT 10SM OVC039 05/M02 A3020 RMK AO1 T00501018 10051 20031
K0V4 171735Z AUTO 07004KT 10SM OVC039 05/M02 A3023 RMK AO1 T00471021
K0V4 171715Z AUTO 08003KT 10SM OVC039 05/M02 A3026 RMK AO1 T00471023
K0V4 171655Z AUTO 10004KT 10SM OVC039 05/M02 A3027 RMK AO1 T00491024
K0V4 171635Z AUTO 08003KT 10SM OVC041 05/M02 A3029 RMK AO1 T00501020
K0V4 171615Z AUTO 09003KT 10SM OVC041 05/M02 A3031 RMK AO1 T00471023
K0V4 171555Z AUTO 06004KT 10SM OVC039 05/M02 A3033 RMK AO1 T00491020
K0V4 171535Z AUTO 08003KT 10SM OVC039 05/M02 A3031 RMK AO1 T00491018
K0V4 171515Z AUTO 07004KT 10SM OVC039 05/M02 A3031 RMK AO1 T00451022
K0V4 171455Z AUTO 07007KT 10SM OVC041 05/M02 A3032 RMK AO1 T00451023
K0V4 171435Z AUTO 08005KT 10SM OVC043 05/M02 A3033 RMK AO1 T00451020
K0V4 171415Z AUTO 06005KT 10SM OVC043 05/M01 A3034 RMK AO1 T00451015
K0V4 171355Z AUTO 07005KT 10SM OVC045 04/M01 A3033 RMK AO1 T00411015
K0V4 171335Z AUTO 05004KT 10SM OVC045 04/M01 A3033 RMK AO1 T00401008
K0V4 171315Z AUTO 06004KT 10SM BKN045 OVC065 04/M01 A3033 RMK AO1 T00401008
K0V4 171255Z AUTO 06004KT 10SM SCT047 OVC065 04/00 A3033 RMK AO1 T00351005
K0V4 171235Z AUTO 07004KT 10SM BKN065 03/00 A3032 RMK AO1 T00321005
K0V4 171215Z AUTO 07003KT 10SM SCT042 03/00 A3033 RMK AO1 T00311005
K0V4 171155Z AUTO 06003KT 10SM SCT042 03/00 A3033 RMK AO1 70003 T00311005 10064 20031
K0V4 171135Z AUTO 07003KT 10SM CLR 03/M01 A3031 RMK AO1 T00341006
K0V4 171115Z AUTO 06004KT 10SM CLR 04/00 A3031 RMK AO1 T00351004
K0V4 171055Z AUTO 06004KT 10SM CLR 04/00 A3031 RMK AO1 T00360000
K0V4 171035Z AUTO 07003KT 10SM CLR 04/01 A3030 RMK AO1 T00380006
K0V4 171015Z AUTO 07004KT 10SM CLR 04/01 A3030 RMK AO1 T00390010
K0V4 170955Z AUTO 07004KT 10SM CLR 04/01 A3029 RMK AO1 T00400013
K0V4 170935Z AUTO 07004KT 10SM CLR 04/01 A3028 RMK AO1 T00400014
K0V4 170915Z AUTO 08003KT 10SM CLR 04/02 A3027 RMK AO1 T00430015
K0V4 170855Z AUTO 06004KT 10SM CLR 04/01 A3026 RMK AO1 T00440014
K0V4 170835Z AUTO 05004KT 10SM CLR 04/02 A3025 RMK AO1 T00370017
K0V4 170815Z AUTO 04004KT 10SM SCT047 05/01 A3025 RMK AO1 T00520010
K0V4 170755Z AUTO 00000KT 10SM BKN047 04/02 A3024 RMK AO1 T00400020
K0V4 170735Z AUTO 00000KT 10SM BKN045 05/02 A3024 RMK AO1 T00480015
K0V4 170715Z AUTO 00000KT 10SM CLR 05/02 A3023 RMK AO1 T00530016
K0V4 170655Z AUTO 05003KT 10SM CLR 06/02 A3023 RMK AO1 T00610017
K0V4 170635Z AUTO 00000KT 10SM SCT045 06/02 A3023 RMK AO1 T00600019
K0V4 170615Z AUTO 31003KT 10SM SCT045 06/02 A3023 RMK AO1 T00610020
K0V4 170555Z AUTO 00000KT 10SM CLR 06/02 A3021 RMK AO1 T00590022 10146 20059
K0V4 170535Z AUTO 34005KT 10SM CLR 07/03 A3021 RMK AO1 T00740025
K0V4 170515Z AUTO 30003KT 10SM SCT045 08/03 A3020 RMK AO1 T00760027
K0V4 170455Z AUTO 00000KT 10SM SCT045 09/03 A3020 RMK AO1 T00860027 401980082
K0V4 170435Z AUTO 33004KT 10SM BKN043 10/03 A3019 RMK AO1 T00970028
K0V4 170415Z AUTO 00000KT 10SM BKN043 08/04 A3018 RMK AO1 T00830036
K0V4 170355Z AUTO 33003KT 10SM SCT047 10/04 A3017 RMK AO1 T00960035
K0V4 170335Z AUTO 32004KT 10SM BKN047 11/03 A3016 RMK AO1 T01080032
K0V4 170315Z AUTO 00000KT 10SM CLR 11/03 A3016 RMK AO1 T01060033
K0V4 170255Z AUTO 30006KT 10SM CLR 11/03 A3014 RMK AO1 T01100034
K0V4 170235Z AUTO 30004KT 10SM CLR 12/03 A3013 RMK AO1 T01180034
K0V4 170215Z AUTO 31005KT 270V340 10SM CLR 13/04 A3011 RMK AO1 T01260039
K0V4 170155Z AUTO 31005KT 10SM SCT120 13/04 A3009 RMK AO1 T01300044
K0V4 170135Z AUTO 31009KT 10SM OVC110 13/05 A3008 RMK AO1 T01340046
K0V4 170115Z AUTO 31008G16KT 10SM OVC110 14/05 A3006 RMK AO1 T01380047
K0V4 170055Z AUTO 30011G14KT 10SM OVC100 14/05 A3005 RMK AO1 T01400053
K0V4 170035Z AUTO 30007G15KT 10SM OVC100 14/06 A3003 RMK AO1 T01420059
K0V4 170015Z AUTO 29008KT 10SM OVC100 14/07 A3001 RMK AO1 T01440068
K0V4 162355Z AUTO 30010KT 10SM OVC100 15/07 A3000 RMK AO1 60002 T01470068 10168 20147
K0V4 162335Z AUTO 31009G14KT 10SM OVC090 15/07 A3000 RMK AO1 T01510070
K0V4 162315Z AUTO 30009KT 10SM OVC090 15/08 A2999 RMK AO1 T01520077
K0V4 162255Z AUTO 29007KT 10SM OVC090 15/08 A2997 RMK AO1 T01540080
K0V4 162235Z AUTO 28009G14KT 10SM OVC090 16/08 A2995 RMK AO1 T01570080
K0V4 162215Z AUTO 30009G14KT 10SM OVC090 16/09 A2992 RMK AO1 T01610085
K0V4 162155Z AUTO 29015G20KT 10SM OVC080 17/10 A2991 RMK AO1 T01680096
K0V4 162135Z AUTO 29008KT 10SM OVC080 17/12 A2989 RMK AO1 T01670115
K0V4 162115Z AUTO 27006KT 10SM OVC080 17/12 A2988 RMK AO1 T01650123
K0V4 162055Z AUTO 27007KT 10SM SCT050 OVC080 17/13 A2986 RMK AO1 60002 T01650132
K0V4 162035Z AUTO 26006KT 10SM SCT070 OVC080 17/15 A2986 RMK AO1 T01650147
K0V4 162015Z AUTO 25007KT 10SM OVC070 16/16 A2985 RMK AO1 T01610160
K0V4 161955Z AUTO 24004KT 10SM OVC070 16/16 A2984 RMK AO1 T01600160
K0V4 161935Z AUTO 26004KT 10SM OVC060 16/16 A2983 RMK AO1 T01600160
K0V4 161915Z AUTO 26004KT 10SM OVC060 16/16 A2983 RMK AO1 T01600160
K0V4 161855Z AUTO 30004KT 10SM OVC060 16/16 A2982 RMK AO1 P0002 T01600158
K0V4 161835Z AUTO 33004KT 7SM SCT046 OVC060 16/16 A2982 RMK AO1 P0001 T01570156
K0V4 161815Z AUTO 33005KT 4SM SCT018 SCT046 OVC050 16/16 A2982 RMK AO1 P0001 T01570156
K0V4 161755Z AUTO 32004KT 7SM SCT018 SCT022 OVC045 16/16 A2982 RMK AO1 P0001 60001 T01640160 10198 20164
K0V4 161735Z AUTO 31005KT 10SM SCT018 SCT025 OVC047 17/15 A2982 RMK AO1 P0001 T01660151
K0V4 161715Z AUTO 31006KT 10SM SCT022 OVC047 18/14 A2981 RMK AO1 T01760136
K0V4 161655Z AUTO 30003KT 10SM OVC045 19/13 A2980 RMK AO1 T01850132
K0V4 161635Z AUTO 28004KT 10SM OVC041 19/13 A2980 RMK AO1 T01880132
K0V4 161615Z AUTO 28004KT 10SM OVC037 19/14 A2980 RMK AO1 T01890135
K0V4 161555Z AUTO 24008KT 10SM OVC035 19/14 A2980 RMK AO1 T01920140
K0V4 161535Z AUTO 24007KT 10SM OVC035 19/15 A2981 RMK AO1 T01920149
K0V4 161515Z AUTO 23006KT SCT035 BKN047 OVC065 20/15 A2980 RMK AO1 T01950150
K0V4 161455Z AUTO 24007KT 10SM SCT041 BKN050 OVC075 20/15 A2980 RMK AO1 T01970152
K0V4 161435Z AUTO 25007KT 10SM OVC050 19/15 A2981 RMK AO1 T01910151
K0V4 161415Z AUTO 26010G14KT 10SM SCT046 OVC050 19/15 A2980 RMK AO1 T01930152
K0V4 161355Z AUTO 23011KT 10SM SCT060 BKN070 OVC080 19/15 A2978 RMK AO1 T01900154
K0V4 161335Z AUTO 21010G17KT 10SM BKN080 19/15 A2978 RMK AO1 T01900153
K0V4 161315Z AUTO 21011G20KT 10SM BKN070 18/16 A2978 RMK AO1 T01830155
K0V4 161255Z AUTO 21010G17KT 10SM SCT070 18/16 A2978 RMK AO1 T01790155
K0V4 161235Z AUTO 23008G17KT 10SM BKN080 18/16 A2978 RMK AO1 T01750156
K0V4 161215Z AUTO 21009G15KT 10SM OVC080 17/16 A2977 RMK AO1 T01730156
K0V4 161155Z AUTO 22010KT 10SM BKN080 17/16 A2978 RMK AO1 T01730155 10192 20170
K0V4 161135Z AUTO 22013G16KT 10SM SCT080 17/16 A2977 RMK AO1 T01710156
K0V4 161115Z AUTO 22011G16KT 10SM CLR 17/15 A2976 RMK AO1 T01710153
K0V4 161055Z AUTO 22011G17KT 10SM CLR 17/15 A2976 RMK AO1 T01710154
K0V4 161035Z AUTO 22010G16KT 10SM CLR 17/15 A2976 RMK AO1 T01720153
K0V4 161015Z AUTO 22013G18KT 10SM CLR 17/15 A2976 RMK AO1 T01720154
K0V4 160955Z AUTO 22011G17KT 10SM CLR 17/15 A2976 RMK AO1 T01730154
K0V4 160935Z AUTO 22011G19KT 10SM CLR 17/16 A2976 RMK AO1 T01740155
K0V4 160915Z AUTO 21014G22KT 10SM CLR 18/15 A2976 RMK AO1 T01760152
K0V4 160855Z AUTO 22013G20KT 10SM CLR 18/15 A2977 RMK AO1 T01770153
K0V4 160835Z AUTO 22013G19KT 10SM CLR 18/15 A2978 RMK AO1 T01780152
K0V4 160815Z AUTO 22010G18KT 10SM CLR 18/15 A2979 RMK AO1 T01800151
K0V4 160755Z AUTO 22010KT 10SM CLR 18/15 A2980 RMK AO1 T01820151